sensor_id;sensor_type;location;lat;lon;timestamp;temperature;humidity
11532;DHT22;5822;51.000;5.874;2023-02-22T00:01:12;10.00;99.90
11532;DHT22;5822;51.000;5.874;2023-02-22T00:03:53;10.00;99.90
11532;DHT22;5822;51.000;5.874;2023-02-22T00:06:20;10.00;99.90
11532;DHT22;5822;51.000;5.874;2023-02-22T00:08:49;10.00;99.90
11532;DHT22;5822;51.000;5.874;2023-02-22T00:11:16;10.00;99.90
11532;DHT22;5822;51.000;5.874;2023-02-22T00:13:43;9.90;99.90
11532;DHT22;5822;51.000;5.874;2023-02-22T00:16:13;9.80;99.90
11532;DHT22;5822;51.000;5.874;2023-02-22T00:18:39;9.80;99.90
11532;DHT22;5822;51.000;5.874;2023-02-22T00:21:05;9.70;99.90
11532;DHT22;5822;51.000;5.874;2023-02-22T00:23:35;9.70;99.90
11532;DHT22;5822;51.000;5.874;2023-02-22T00:26:05;9.70;99.90
11532;DHT22;5822;51.000;5.874;2023-02-22T00:28:37;9.70;99.90
11532;DHT22;5822;51.000;5.874;2023-02-22T00:31:04;9.70;99.90
11532;DHT22;5822;51.000;5.874;2023-02-22T00:33:31;9.80;99.90
11532;DHT22;5822;51.000;5.874;2023-02-22T00:35:57;9.90;99.90
11532;DHT22;5822;51.000;5.874;2023-02-22T00:38:23;9.90;99.90
11532;DHT22;5822;51.000;5.874;2023-02-22T00:40:49;9.80;99.90
11532;DHT22;5822;51.000;5.874;2023-02-22T00:43:14;9.70;99.90
11532;DHT22;5822;51.000;5.874;2023-02-22T00:45:41;9.70;99.90
11532;DHT22;5822;51.000;5.874;2023-02-22T00:48:08;9.70;99.90
11532;DHT22;5822;51.000;5.874;2023-02-22T00:50:34;9.60;99.90
11532;DHT22;5822;51.000;5.874;2023-02-22T00:53:01;9.60;99.90
11532;DHT22;5822;51.000;5.874;2023-02-22T00:55:33;9.60;99.90
11532;DHT22;5822;51.000;5.874;2023-02-22T00:57:59;9.70;99.90
11532;DHT22;5822;51.000;5.874;2023-02-22T01:00:30;9.80;99.90
11532;DHT22;5822;51.000;5.874;2023-02-22T01:02:57;9.80;99.90
11532;DHT22;5822;51.000;5.874;2023-02-22T01:05:26;9.70;99.90
11532;DHT22;5822;51.000;5.874;2023-02-22T01:07:51;9.60;99.90
11532;DHT22;5822;51.000;5.874;2023-02-22T01:10:19;9.60;99.90
11532;DHT22;5822;51.000;5.874;2023-02-22T01:12:46;9.70;99.90
11532;DHT22;5822;51.000;5.874;2023-02-22T01:15:13;9.60;99.90
11532;DHT22;5822;51.000;5.874;2023-02-22T01:17:39;9.70;99.90
11532;DHT22;5822;51.000;5.874;2023-02-22T01:20:09;9.80;99.90
11532;DHT22;5822;51.000;5.874;2023-02-22T01:22:38;9.90;99.90
11532;DHT22;5822;51.000;5.874;2023-02-22T01:25:04;9.90;99.90
11532;DHT22;5822;51.000;5.874;2023-02-22T01:27:32;9.80;99.90
11532;DHT22;5822;51.000;5.874;2023-02-22T01:29:58;9.90;99.90
11532;DHT22;5822;51.000;5.874;2023-02-22T01:32:24;9.80;99.90
11532;DHT22;5822;51.000;5.874;2023-02-22T01:34:53;9.80;99.90
11532;DHT22;5822;51.000;5.874;2023-02-22T01:37:18;9.80;99.90
11532;DHT22;5822;51.000;5.874;2023-02-22T01:39:44;9.90;99.90
11532;DHT22;5822;51.000;5.874;2023-02-22T01:42:12;9.80;99.90
11532;DHT22;5822;51.000;5.874;2023-02-22T01:44:38;9.90;99.90
11532;DHT22;5822;51.000;5.874;2023-02-22T01:47:06;9.90;99.90
11532;DHT22;5822;51.000;5.874;2023-02-22T01:49:41;9.80;99.90
11532;DHT22;5822;51.000;5.874;2023-02-22T01:52:13;9.80;99.90
11532;DHT22;5822;51.000;5.874;2023-02-22T01:54:44;9.80;99.90
11532;DHT22;5822;51.000;5.874;2023-02-22T01:57:13;9.80;99.90
11532;DHT22;5822;51.000;5.874;2023-02-22T01:59:42;9.80;99.90
11532;DHT22;5822;51.000;5.874;2023-02-22T02:02:09;9.80;99.90
11532;DHT22;5822;51.000;5.874;2023-02-22T02:04:36;9.80;99.90
11532;DHT22;5822;51.000;5.874;2023-02-22T02:07:05;9.80;99.90
11532;DHT22;5822;51.000;5.874;2023-02-22T02:09:37;9.90;99.90
11532;DHT22;5822;51.000;5.874;2023-02-22T02:12:06;9.80;99.90
11532;DHT22;5822;51.000;5.874;2023-02-22T02:14:33;9.70;99.90
11532;DHT22;5822;51.000;5.874;2023-02-22T02:17:08;9.60;99.90
11532;DHT22;5822;51.000;5.874;2023-02-22T02:39:04;9.20;99.90
11532;DHT22;5822;51.000;5.874;2023-02-22T02:41:41;9.20;99.90
11532;DHT22;5822;51.000;5.874;2023-02-22T02:44:26;9.20;99.90
11532;DHT22;5822;51.000;5.874;2023-02-22T02:47:00;9.20;99.90
11532;DHT22;5822;51.000;5.874;2023-02-22T02:49:34;9.20;99.90
11532;DHT22;5822;51.000;5.874;2023-02-22T02:52:02;9.10;99.90
11532;DHT22;5822;51.000;5.874;2023-02-22T02:54:29;9.10;99.90
11532;DHT22;5822;51.000;5.874;2023-02-22T02:56:56;9.00;99.90
11532;DHT22;5822;51.000;5.874;2023-02-22T02:59:34;9.10;99.90
11532;DHT22;5822;51.000;5.874;2023-02-22T03:05:03;9.10;99.90
11532;DHT22;5822;51.000;5.874;2023-02-22T03:15:58;8.90;99.90
11532;DHT22;5822;51.000;5.874;2023-02-22T03:26:46;8.70;99.90
11532;DHT22;5822;51.000;5.874;2023-02-22T03:29:16;8.70;99.90
11532;DHT22;5822;51.000;5.874;2023-02-22T03:31:50;8.70;99.90
11532;DHT22;5822;51.000;5.874;2023-02-22T03:34:28;8.80;99.90
11532;DHT22;5822;51.000;5.874;2023-02-22T03:37:00;8.80;99.90
11532;DHT22;5822;51.000;5.874;2023-02-22T03:39:28;8.80;99.90
11532;DHT22;5822;51.000;5.874;2023-02-22T03:42:02;8.70;99.90
11532;DHT22;5822;51.000;5.874;2023-02-22T03:44:31;8.70;99.90
11532;DHT22;5822;51.000;5.874;2023-02-22T03:47:02;8.70;99.90
11532;DHT22;5822;51.000;5.874;2023-02-22T03:49:32;8.70;99.90
11532;DHT22;5822;51.000;5.874;2023-02-22T03:52:00;8.70;99.90
11532;DHT22;5822;51.000;5.874;2023-02-22T03:54:27;8.80;99.90
11532;DHT22;5822;51.000;5.874;2023-02-22T03:57:47;8.80;99.90
11532;DHT22;5822;51.000;5.874;2023-02-22T03:59:53;8.80;99.90
11532;DHT22;5822;51.000;5.874;2023-02-22T04:02:19;8.60;99.90
11532;DHT22;5822;51.000;5.874;2023-02-22T04:04:47;8.60;99.90
11532;DHT22;5822;51.000;5.874;2023-02-22T04:07:13;8.50;99.90
11532;DHT22;5822;51.000;5.874;2023-02-22T04:09:39;8.60;99.90
11532;DHT22;5822;51.000;5.874;2023-02-22T04:12:05;8.60;99.90
11532;DHT22;5822;51.000;5.874;2023-02-22T04:14:30;8.50;99.90
11532;DHT22;5822;51.000;5.874;2023-02-22T04:16:56;8.50;99.90
11532;DHT22;5822;51.000;5.874;2023-02-22T04:19:21;8.50;99.90
11532;DHT22;5822;51.000;5.874;2023-02-22T04:21:47;8.50;99.90
11532;DHT22;5822;51.000;5.874;2023-02-22T04:24:13;8.50;99.90
11532;DHT22;5822;51.000;5.874;2023-02-22T04:26:39;8.50;99.90
11532;DHT22;5822;51.000;5.874;2023-02-22T04:29:05;8.50;99.90
11532;DHT22;5822;51.000;5.874;2023-02-22T04:31:31;8.40;99.90
11532;DHT22;5822;51.000;5.874;2023-02-22T04:33:58;8.40;99.90
11532;DHT22;5822;51.000;5.874;2023-02-22T04:36:25;8.40;99.90
11532;DHT22;5822;51.000;5.874;2023-02-22T04:38:51;8.40;99.90
11532;DHT22;5822;51.000;5.874;2023-02-22T04:41:18;8.40;99.90
11532;DHT22;5822;51.000;5.874;2023-02-22T04:43:43;8.30;99.90
11532;DHT22;5822;51.000;5.874;2023-02-22T04:46:09;8.40;99.90
11532;DHT22;5822;51.000;5.874;2023-02-22T04:48:34;8.40;99.90
11532;DHT22;5822;51.000;5.874;2023-02-22T04:51:00;8.40;99.90
11532;DHT22;5822;51.000;5.874;2023-02-22T04:53:26;8.30;99.90
11532;DHT22;5822;51.000;5.874;2023-02-22T04:55:51;8.40;99.90
11532;DHT22;5822;51.000;5.874;2023-02-22T04:58:17;8.30;99.90
11532;DHT22;5822;51.000;5.874;2023-02-22T05:00:43;8.30;99.90
11532;DHT22;5822;51.000;5.874;2023-02-22T05:03:08;8.30;99.90
11532;DHT22;5822;51.000;5.874;2023-02-22T05:05:34;8.30;99.90
11532;DHT22;5822;51.000;5.874;2023-02-22T05:08:00;8.30;99.90
11532;DHT22;5822;51.000;5.874;2023-02-22T05:10:25;8.30;99.90
11532;DHT22;5822;51.000;5.874;2023-02-22T05:12:51;8.30;99.90
11532;DHT22;5822;51.000;5.874;2023-02-22T05:15:18;8.30;99.90
11532;DHT22;5822;51.000;5.874;2023-02-22T05:17:45;8.20;99.90
11532;DHT22;5822;51.000;5.874;2023-02-22T05:20:23;8.20;99.90
11532;DHT22;5822;51.000;5.874;2023-02-22T05:22:53;8.20;99.90
11532;DHT22;5822;51.000;5.874;2023-02-22T05:25:19;8.10;99.90
11532;DHT22;5822;51.000;5.874;2023-02-22T05:27:52;8.10;99.90
11532;DHT22;5822;51.000;5.874;2023-02-22T05:30:20;8.20;99.90
11532;DHT22;5822;51.000;5.874;2023-02-22T05:32:48;8.10;99.90
11532;DHT22;5822;51.000;5.874;2023-02-22T05:35:18;8.10;99.90
11532;DHT22;5822;51.000;5.874;2023-02-22T05:37:44;8.10;99.90
11532;DHT22;5822;51.000;5.874;2023-02-22T05:40:09;8.20;99.90
11532;DHT22;5822;51.000;5.874;2023-02-22T05:42:35;8.10;99.90
11532;DHT22;5822;51.000;5.874;2023-02-22T05:45:01;8.20;99.90
11532;DHT22;5822;51.000;5.874;2023-02-22T05:47:28;8.20;99.90
11532;DHT22;5822;51.000;5.874;2023-02-22T05:49:54;8.20;99.90
11532;DHT22;5822;51.000;5.874;2023-02-22T05:52:20;8.30;99.90
11532;DHT22;5822;51.000;5.874;2023-02-22T05:54:45;8.40;99.90
11532;DHT22;5822;51.000;5.874;2023-02-22T05:57:11;8.50;99.90
11532;DHT22;5822;51.000;5.874;2023-02-22T05:59:37;8.50;99.90
11532;DHT22;5822;51.000;5.874;2023-02-22T06:02:02;8.40;99.90
11532;DHT22;5822;51.000;5.874;2023-02-22T06:04:28;8.40;99.90
11532;DHT22;5822;51.000;5.874;2023-02-22T06:06:54;8.50;99.90
11532;DHT22;5822;51.000;5.874;2023-02-22T06:09:20;8.50;99.90
11532;DHT22;5822;51.000;5.874;2023-02-22T06:11:46;8.50;99.90
11532;DHT22;5822;51.000;5.874;2023-02-22T06:14:11;8.50;99.90
11532;DHT22;5822;51.000;5.874;2023-02-22T06:16:37;8.50;99.90
11532;DHT22;5822;51.000;5.874;2023-02-22T06:19:03;8.50;99.90
11532;DHT22;5822;51.000;5.874;2023-02-22T06:21:29;8.50;99.90
11532;DHT22;5822;51.000;5.874;2023-02-22T06:23:54;8.40;99.90
11532;DHT22;5822;51.000;5.874;2023-02-22T06:26:20;8.40;99.90
11532;DHT22;5822;51.000;5.874;2023-02-22T06:28:47;8.40;99.90
11532;DHT22;5822;51.000;5.874;2023-02-22T06:31:13;8.40;99.90
11532;DHT22;5822;51.000;5.874;2023-02-22T06:33:39;8.40;99.90
11532;DHT22;5822;51.000;5.874;2023-02-22T06:36:05;8.30;99.90
11532;DHT22;5822;51.000;5.874;2023-02-22T06:38:31;8.20;99.90
11532;DHT22;5822;51.000;5.874;2023-02-22T06:40:57;8.30;99.90
11532;DHT22;5822;51.000;5.874;2023-02-22T06:43:23;8.40;99.90
11532;DHT22;5822;51.000;5.874;2023-02-22T06:45:50;8.40;99.90
11532;DHT22;5822;51.000;5.874;2023-02-22T06:48:17;8.40;99.90
11532;DHT22;5822;51.000;5.874;2023-02-22T06:50:42;8.40;99.90
11532;DHT22;5822;51.000;5.874;2023-02-22T06:53:08;8.40;99.90
11532;DHT22;5822;51.000;5.874;2023-02-22T06:55:34;8.50;99.90
11532;DHT22;5822;51.000;5.874;2023-02-22T06:58:01;8.50;99.90
11532;DHT22;5822;51.000;5.874;2023-02-22T07:00:28;8.60;99.90
11532;DHT22;5822;51.000;5.874;2023-02-22T07:02:55;8.70;99.90
11532;DHT22;5822;51.000;5.874;2023-02-22T07:05:22;8.60;99.90
11532;DHT22;5822;51.000;5.874;2023-02-22T07:07:49;8.60;99.90
11532;DHT22;5822;51.000;5.874;2023-02-22T07:10:23;8.60;99.90
11532;DHT22;5822;51.000;5.874;2023-02-22T07:12:49;8.60;99.90
11532;DHT22;5822;51.000;5.874;2023-02-22T07:15:18;8.60;99.90
11532;DHT22;5822;51.000;5.874;2023-02-22T07:17:45;8.50;99.90
11532;DHT22;5822;51.000;5.874;2023-02-22T07:20:11;8.50;99.90
11532;DHT22;5822;51.000;5.874;2023-02-22T07:22:37;8.50;99.90
11532;DHT22;5822;51.000;5.874;2023-02-22T07:25:05;8.60;99.90
11532;DHT22;5822;51.000;5.874;2023-02-22T07:27:30;8.60;99.90
11532;DHT22;5822;51.000;5.874;2023-02-22T07:29:56;8.50;99.90
11532;DHT22;5822;51.000;5.874;2023-02-22T07:32:22;8.60;99.90
11532;DHT22;5822;51.000;5.874;2023-02-22T07:34:47;8.60;99.90
11532;DHT22;5822;51.000;5.874;2023-02-22T07:37:13;8.60;99.90
11532;DHT22;5822;51.000;5.874;2023-02-22T07:39:38;8.60;99.90
11532;DHT22;5822;51.000;5.874;2023-02-22T07:42:06;8.60;99.90
11532;DHT22;5822;51.000;5.874;2023-02-22T07:44:32;8.60;99.90
11532;DHT22;5822;51.000;5.874;2023-02-22T07:46:57;8.70;99.90
11532;DHT22;5822;51.000;5.874;2023-02-22T07:49:23;8.70;99.90
11532;DHT22;5822;51.000;5.874;2023-02-22T07:51:49;8.70;99.90
11532;DHT22;5822;51.000;5.874;2023-02-22T07:54:14;8.70;99.90
11532;DHT22;5822;51.000;5.874;2023-02-22T07:56:44;8.80;99.90
11532;DHT22;5822;51.000;5.874;2023-02-22T07:59:10;8.80;99.90
11532;DHT22;5822;51.000;5.874;2023-02-22T08:01:36;8.70;99.90
11532;DHT22;5822;51.000;5.874;2023-02-22T08:04:04;8.60;99.90
11532;DHT22;5822;51.000;5.874;2023-02-22T08:06:30;8.80;99.90
11532;DHT22;5822;51.000;5.874;2023-02-22T08:08:56;8.80;99.90
11532;DHT22;5822;51.000;5.874;2023-02-22T08:11:23;8.90;99.90
11532;DHT22;5822;51.000;5.874;2023-02-22T08:13:49;9.00;99.90
11532;DHT22;5822;51.000;5.874;2023-02-22T08:16:15;9.00;99.90
11532;DHT22;5822;51.000;5.874;2023-02-22T08:18:40;9.10;99.90
11532;DHT22;5822;51.000;5.874;2023-02-22T08:21:06;9.00;99.90
11532;DHT22;5822;51.000;5.874;2023-02-22T08:23:32;9.10;99.90
11532;DHT22;5822;51.000;5.874;2023-02-22T08:26:08;9.10;99.90
11532;DHT22;5822;51.000;5.874;2023-02-22T08:28:34;9.10;99.90
11532;DHT22;5822;51.000;5.874;2023-02-22T08:31:00;9.20;99.90
11532;DHT22;5822;51.000;5.874;2023-02-22T08:33:25;9.20;99.90
11532;DHT22;5822;51.000;5.874;2023-02-22T08:35:51;9.20;99.90
11532;DHT22;5822;51.000;5.874;2023-02-22T08:38:20;9.20;99.90
11532;DHT22;5822;51.000;5.874;2023-02-22T08:40:47;9.10;99.90
11532;DHT22;5822;51.000;5.874;2023-02-22T08:43:13;9.20;99.90
11532;DHT22;5822;51.000;5.874;2023-02-22T08:45:39;9.30;99.90
11532;DHT22;5822;51.000;5.874;2023-02-22T08:48:05;9.30;99.90
11532;DHT22;5822;51.000;5.874;2023-02-22T08:50:31;9.40;99.90
11532;DHT22;5822;51.000;5.874;2023-02-22T08:53:02;9.40;99.90
11532;DHT22;5822;51.000;5.874;2023-02-22T08:55:30;9.40;99.90
11532;DHT22;5822;51.000;5.874;2023-02-22T08:57:57;9.40;99.90
11532;DHT22;5822;51.000;5.874;2023-02-22T09:00:23;9.50;99.90
11532;DHT22;5822;51.000;5.874;2023-02-22T09:02:50;9.50;99.90
11532;DHT22;5822;51.000;5.874;2023-02-22T09:05:16;9.50;99.90
11532;DHT22;5822;51.000;5.874;2023-02-22T09:07:42;9.60;99.90
11532;DHT22;5822;51.000;5.874;2023-02-22T09:10:12;9.60;99.90
11532;DHT22;5822;51.000;5.874;2023-02-22T09:12:40;9.60;99.90
11532;DHT22;5822;51.000;5.874;2023-02-22T09:15:06;9.70;99.90
11532;DHT22;5822;51.000;5.874;2023-02-22T09:17:31;9.70;99.90
11532;DHT22;5822;51.000;5.874;2023-02-22T09:19:57;9.80;99.90
11532;DHT22;5822;51.000;5.874;2023-02-22T09:22:23;9.80;99.90
11532;DHT22;5822;51.000;5.874;2023-02-22T09:24:51;9.80;99.90
11532;DHT22;5822;51.000;5.874;2023-02-22T09:27:16;9.80;99.90
11532;DHT22;5822;51.000;5.874;2023-02-22T09:29:47;9.90;99.90
11532;DHT22;5822;51.000;5.874;2023-02-22T09:32:13;9.90;99.90
11532;DHT22;5822;51.000;5.874;2023-02-22T09:34:42;9.90;99.90
11532;DHT22;5822;51.000;5.874;2023-02-22T09:37:10;10.00;99.90
11532;DHT22;5822;51.000;5.874;2023-02-22T09:39:36;10.00;99.90
11532;DHT22;5822;51.000;5.874;2023-02-22T09:47:22;10.10;99.90
11532;DHT22;5822;51.000;5.874;2023-02-22T09:50:09;10.10;99.90
11532;DHT22;5822;51.000;5.874;2023-02-22T09:52:58;10.20;99.90
11532;DHT22;5822;51.000;5.874;2023-02-22T09:57:56;10.30;99.90
11532;DHT22;5822;51.000;5.874;2023-02-22T10:00:36;10.30;99.90
11532;DHT22;5822;51.000;5.874;2023-02-22T10:05:40;10.40;99.90
11532;DHT22;5822;51.000;5.874;2023-02-22T10:08:16;10.50;99.90
11532;DHT22;5822;51.000;5.874;2023-02-22T10:10:46;10.60;99.90
11532;DHT22;5822;51.000;5.874;2023-02-22T10:16:31;10.70;99.90
11532;DHT22;5822;51.000;5.874;2023-02-22T10:19:16;10.70;99.90
11532;DHT22;5822;51.000;5.874;2023-02-22T10:22:50;10.60;99.90
11532;DHT22;5822;51.000;5.874;2023-02-22T10:25:00;10.70;99.90
11532;DHT22;5822;51.000;5.874;2023-02-22T10:27:36;10.70;99.90
11532;DHT22;5822;51.000;5.874;2023-02-22T10:32:43;10.80;99.90
11532;DHT22;5822;51.000;5.874;2023-02-22T10:35:23;10.90;99.90
11532;DHT22;5822;51.000;5.874;2023-02-22T10:38:13;11.00;99.90
11532;DHT22;5822;51.000;5.874;2023-02-22T10:40:37;11.00;99.90
11532;DHT22;5822;51.000;5.874;2023-02-22T10:43:05;11.10;99.90
11532;DHT22;5822;51.000;5.874;2023-02-22T10:45:33;11.10;99.90
11532;DHT22;5822;51.000;5.874;2023-02-22T10:48:02;11.20;99.90
11532;DHT22;5822;51.000;5.874;2023-02-22T10:50:34;11.20;99.90
11532;DHT22;5822;51.000;5.874;2023-02-22T10:53:01;11.30;99.90
11532;DHT22;5822;51.000;5.874;2023-02-22T10:55:26;11.30;99.90
11532;DHT22;5822;51.000;5.874;2023-02-22T10:58:03;11.40;99.90
11532;DHT22;5822;51.000;5.874;2023-02-22T11:00:36;11.50;99.90
11532;DHT22;5822;51.000;5.874;2023-02-22T11:05:41;11.60;99.90
11532;DHT22;5822;51.000;5.874;2023-02-22T11:08:27;11.60;99.90
11532;DHT22;5822;51.000;5.874;2023-02-22T11:10:56;11.70;99.90
11532;DHT22;5822;51.000;5.874;2023-02-22T11:13:28;11.80;99.90
11532;DHT22;5822;51.000;5.874;2023-02-22T11:15:58;11.80;99.90
11532;DHT22;5822;51.000;5.874;2023-02-22T11:18:32;11.90;99.90
11532;DHT22;5822;51.000;5.874;2023-02-22T11:21:07;11.90;99.90
11532;DHT22;5822;51.000;5.874;2023-02-22T11:23:36;12.00;99.90
11532;DHT22;5822;51.000;5.874;2023-02-22T11:28:32;12.00;99.90
11532;DHT22;5822;51.000;5.874;2023-02-22T11:31:20;12.10;99.90
11532;DHT22;5822;51.000;5.874;2023-02-22T11:34:00;12.10;99.90
11532;DHT22;5822;51.000;5.874;2023-02-22T11:39:04;12.20;99.90
11532;DHT22;5822;51.000;5.874;2023-02-22T11:41:32;12.20;99.90
11532;DHT22;5822;51.000;5.874;2023-02-22T11:44:25;12.20;99.90
11532;DHT22;5822;51.000;5.874;2023-02-22T11:46:52;12.30;99.90
11532;DHT22;5822;51.000;5.874;2023-02-22T11:49:23;12.30;99.90
11532;DHT22;5822;51.000;5.874;2023-02-22T11:52:31;12.30;99.90
11532;DHT22;5822;51.000;5.874;2023-02-22T11:58:09;12.40;99.90
11532;DHT22;5822;51.000;5.874;2023-02-22T12:00:55;12.50;99.90
11532;DHT22;5822;51.000;5.874;2023-02-22T12:12:03;12.70;99.90
11532;DHT22;5822;51.000;5.874;2023-02-22T12:15:15;12.70;99.90
11532;DHT22;5822;51.000;5.874;2023-02-22T12:18:01;12.80;99.90
11532;DHT22;5822;51.000;5.874;2023-02-22T12:21:08;12.80;99.90
11532;DHT22;5822;51.000;5.874;2023-02-22T12:23:44;12.80;99.90
11532;DHT22;5822;51.000;5.874;2023-02-22T12:26:34;12.90;99.90
11532;DHT22;5822;51.000;5.874;2023-02-22T12:31:44;12.90;99.90
11532;DHT22;5822;51.000;5.874;2023-02-22T12:37:20;13.00;99.90
11532;DHT22;5822;51.000;5.874;2023-02-22T12:40:03;13.00;99.90
11532;DHT22;5822;51.000;5.874;2023-02-22T12:42:35;13.00;99.90
11532;DHT22;5822;51.000;5.874;2023-02-22T12:45:10;13.00;99.90
11532;DHT22;5822;51.000;5.874;2023-02-22T12:47:51;13.00;99.90
11532;DHT22;5822;51.000;5.874;2023-02-22T12:50:21;13.10;99.90
11532;DHT22;5822;51.000;5.874;2023-02-22T12:52:58;13.10;99.90
11532;DHT22;5822;51.000;5.874;2023-02-22T12:55:39;13.10;99.90
11532;DHT22;5822;51.000;5.874;2023-02-22T12:58:31;13.20;99.90
11532;DHT22;5822;51.000;5.874;2023-02-22T13:01:01;13.20;99.90
11532;DHT22;5822;51.000;5.874;2023-02-22T13:03:39;13.20;99.90
11532;DHT22;5822;51.000;5.874;2023-02-22T13:08:56;13.30;99.90
11532;DHT22;5822;51.000;5.874;2023-02-22T13:12:28;13.30;99.90
11532;DHT22;5822;51.000;5.874;2023-02-22T13:20:21;13.40;99.90
11532;DHT22;5822;51.000;5.874;2023-02-22T13:25:41;13.40;99.90
11532;DHT22;5822;51.000;5.874;2023-02-22T13:30:43;13.40;99.90
11532;DHT22;5822;51.000;5.874;2023-02-22T13:38:35;13.40;99.90
11532;DHT22;5822;51.000;5.874;2023-02-22T13:41:42;13.40;99.90
11532;DHT22;5822;51.000;5.874;2023-02-22T13:44:28;13.40;99.90
11532;DHT22;5822;51.000;5.874;2023-02-22T13:52:21;13.40;99.90
11532;DHT22;5822;51.000;5.874;2023-02-22T13:54:50;13.30;99.90
11532;DHT22;5822;51.000;5.874;2023-02-22T13:57:39;13.30;99.90
11532;DHT22;5822;51.000;5.874;2023-02-22T14:03:05;13.40;99.90
11532;DHT22;5822;51.000;5.874;2023-02-22T14:10:52;13.40;99.90
11532;DHT22;5822;51.000;5.874;2023-02-22T14:13:23;13.40;99.90
11532;DHT22;5822;51.000;5.874;2023-02-22T14:18:23;13.40;99.90
11532;DHT22;5822;51.000;5.874;2023-02-22T14:21:16;13.40;99.90
11532;DHT22;5822;51.000;5.874;2023-02-22T14:23:47;13.40;99.90
11532;DHT22;5822;51.000;5.874;2023-02-22T14:31:17;13.40;99.90
11532;DHT22;5822;51.000;5.874;2023-02-22T14:37:17;13.50;99.90
11532;DHT22;5822;51.000;5.874;2023-02-22T14:39:56;13.50;99.90
11532;DHT22;5822;51.000;5.874;2023-02-22T14:42:49;13.50;99.90
11532;DHT22;5822;51.000;5.874;2023-02-22T14:50:45;13.60;99.90
11532;DHT22;5822;51.000;5.874;2023-02-22T14:53:35;13.50;99.90
11532;DHT22;5822;51.000;5.874;2023-02-22T14:56:07;13.50;99.90
11532;DHT22;5822;51.000;5.874;2023-02-22T14:58:40;13.50;99.90
11532;DHT22;5822;51.000;5.874;2023-02-22T15:01:31;13.50;99.90
11532;DHT22;5822;51.000;5.874;2023-02-22T15:04:22;13.40;99.90
11532;DHT22;5822;51.000;5.874;2023-02-22T15:06:51;13.40;99.90
11532;DHT22;5822;51.000;5.874;2023-02-22T15:09:26;13.40;99.90
11532;DHT22;5822;51.000;5.874;2023-02-22T15:14:32;13.40;99.90
11532;DHT22;5822;51.000;5.874;2023-02-22T15:17:08;13.40;99.90
11532;DHT22;5822;51.000;5.874;2023-02-22T15:19:38;13.40;99.90
11532;DHT22;5822;51.000;5.874;2023-02-22T15:22:04;13.30;99.90
11532;DHT22;5822;51.000;5.874;2023-02-22T15:24:35;13.30;99.90
11532;DHT22;5822;51.000;5.874;2023-02-22T15:27:09;13.20;99.90
11532;DHT22;5822;51.000;5.874;2023-02-22T15:29:40;13.20;99.90
11532;DHT22;5822;51.000;5.874;2023-02-22T15:32:29;13.20;99.90
11532;DHT22;5822;51.000;5.874;2023-02-22T15:35:18;13.20;99.90
11532;DHT22;5822;51.000;5.874;2023-02-22T15:37:44;13.20;99.90
11532;DHT22;5822;51.000;5.874;2023-02-22T15:40:16;13.20;99.90
11532;DHT22;5822;51.000;5.874;2023-02-22T15:42:51;13.20;99.90
11532;DHT22;5822;51.000;5.874;2023-02-22T15:45:29;13.20;99.90
11532;DHT22;5822;51.000;5.874;2023-02-22T15:47:57;13.10;99.90
11532;DHT22;5822;51.000;5.874;2023-02-22T15:50:29;13.10;99.90
11532;DHT22;5822;51.000;5.874;2023-02-22T15:53:02;13.00;99.90
11532;DHT22;5822;51.000;5.874;2023-02-22T15:55:35;13.10;99.90
11532;DHT22;5822;51.000;5.874;2023-02-22T15:58:09;13.10;99.90
11532;DHT22;5822;51.000;5.874;2023-02-22T16:00:37;13.10;99.90
11532;DHT22;5822;51.000;5.874;2023-02-22T16:03:18;13.00;99.90
11532;DHT22;5822;51.000;5.874;2023-02-22T16:05:52;13.00;99.90
11532;DHT22;5822;51.000;5.874;2023-02-22T16:08:21;13.00;99.90
11532;DHT22;5822;51.000;5.874;2023-02-22T16:11:01;13.00;99.90
11532;DHT22;5822;51.000;5.874;2023-02-22T16:13:31;13.00;99.90
11532;DHT22;5822;51.000;5.874;2023-02-22T16:16:00;12.90;99.90
11532;DHT22;5822;51.000;5.874;2023-02-22T16:18:33;13.00;99.90
11532;DHT22;5822;51.000;5.874;2023-02-22T16:23:28;13.00;99.90
11532;DHT22;5822;51.000;5.874;2023-02-22T16:26:20;12.90;99.90
11532;DHT22;5822;51.000;5.874;2023-02-22T16:28:59;13.00;99.90
11532;DHT22;5822;51.000;5.874;2023-02-22T16:31:34;13.00;99.90
11532;DHT22;5822;51.000;5.874;2023-02-22T16:34:02;13.00;99.90
11532;DHT22;5822;51.000;5.874;2023-02-22T16:36:43;13.00;99.90
11532;DHT22;5822;51.000;5.874;2023-02-22T16:39:25;12.90;99.90
11532;DHT22;5822;51.000;5.874;2023-02-22T16:41:53;13.00;99.90
11532;DHT22;5822;51.000;5.874;2023-02-22T16:44:20;13.00;99.90
11532;DHT22;5822;51.000;5.874;2023-02-22T16:46:50;13.00;99.90
11532;DHT22;5822;51.000;5.874;2023-02-22T16:49:16;12.90;99.90
11532;DHT22;5822;51.000;5.874;2023-02-22T16:54:13;12.90;99.90
11532;DHT22;5822;51.000;5.874;2023-02-22T16:56:39;12.90;99.90
11532;DHT22;5822;51.000;5.874;2023-02-22T16:59:12;12.80;99.90
11532;DHT22;5822;51.000;5.874;2023-02-22T17:01:39;12.70;99.90
11532;DHT22;5822;51.000;5.874;2023-02-22T17:04:21;12.70;99.90
11532;DHT22;5822;51.000;5.874;2023-02-22T17:06:48;12.60;99.90
11532;DHT22;5822;51.000;5.874;2023-02-22T17:09:14;12.60;99.90
11532;DHT22;5822;51.000;5.874;2023-02-22T17:11:45;12.60;99.90
11532;DHT22;5822;51.000;5.874;2023-02-22T17:14:20;12.50;99.90
11532;DHT22;5822;51.000;5.874;2023-02-22T17:16:50;12.50;99.90
11532;DHT22;5822;51.000;5.874;2023-02-22T17:19:22;12.50;99.90
11532;DHT22;5822;51.000;5.874;2023-02-22T17:21:49;12.60;99.90
11532;DHT22;5822;51.000;5.874;2023-02-22T17:24:20;12.50;99.90
11532;DHT22;5822;51.000;5.874;2023-02-22T17:26:48;12.50;99.90
11532;DHT22;5822;51.000;5.874;2023-02-22T17:29:14;12.60;99.90
11532;DHT22;5822;51.000;5.874;2023-02-22T17:31:42;12.60;99.90
11532;DHT22;5822;51.000;5.874;2023-02-22T17:34:07;12.60;99.90
11532;DHT22;5822;51.000;5.874;2023-02-22T17:36:34;12.60;99.90
11532;DHT22;5822;51.000;5.874;2023-02-22T17:39:01;12.50;99.90
11532;DHT22;5822;51.000;5.874;2023-02-22T17:41:28;12.50;99.90
11532;DHT22;5822;51.000;5.874;2023-02-22T17:43:53;12.50;99.90
11532;DHT22;5822;51.000;5.874;2023-02-22T17:46:25;12.60;99.90
11532;DHT22;5822;51.000;5.874;2023-02-22T17:48:51;12.60;99.90
11532;DHT22;5822;51.000;5.874;2023-02-22T17:51:19;12.50;99.90
11532;DHT22;5822;51.000;5.874;2023-02-22T17:53:46;12.60;99.90
11532;DHT22;5822;51.000;5.874;2023-02-22T17:56:13;12.60;99.90
11532;DHT22;5822;51.000;5.874;2023-02-22T17:58:43;12.50;99.90
11532;DHT22;5822;51.000;5.874;2023-02-22T18:01:25;12.50;99.90
11532;DHT22;5822;51.000;5.874;2023-02-22T18:03:52;12.50;99.90
11532;DHT22;5822;51.000;5.874;2023-02-22T18:06:19;12.50;99.90
11532;DHT22;5822;51.000;5.874;2023-02-22T18:08:46;12.50;99.90
11532;DHT22;5822;51.000;5.874;2023-02-22T18:11:13;12.50;99.90
11532;DHT22;5822;51.000;5.874;2023-02-22T18:13:40;12.50;99.90
11532;DHT22;5822;51.000;5.874;2023-02-22T18:16:06;12.50;99.90
11532;DHT22;5822;51.000;5.874;2023-02-22T18:18:32;12.50;99.90
11532;DHT22;5822;51.000;5.874;2023-02-22T18:20:58;12.50;99.90
11532;DHT22;5822;51.000;5.874;2023-02-22T18:23:25;12.50;99.90
11532;DHT22;5822;51.000;5.874;2023-02-22T18:25:55;12.50;99.90
11532;DHT22;5822;51.000;5.874;2023-02-22T18:28:23;12.40;99.90
11532;DHT22;5822;51.000;5.874;2023-02-22T18:30:49;12.30;99.90
11532;DHT22;5822;51.000;5.874;2023-02-22T18:33:15;12.40;99.90